sensor_id;sensor_type;location;lat;lon;timestamp;P1;durP1;ratioP1;P2;durP2;ratioP2
78686;SDS011;68002;52.310;6.990;2023-08-12T00:02:04;9.73;;;6.38;;
78686;SDS011;68002;52.310;6.990;2023-08-12T00:04:29;8.95;;;6.25;;
78686;SDS011;68002;52.310;6.990;2023-08-12T00:06:54;7.88;;;5.72;;
78686;SDS011;68002;52.310;6.990;2023-08-12T00:09:19;9.80;;;4.90;;
78686;SDS011;68002;52.310;6.990;2023-08-12T00:11:44;10.50;;;6.25;;
78686;SDS011;68002;52.310;6.990;2023-08-12T00:14:09;9.32;;;6.55;;
78686;SDS011;68002;52.310;6.990;2023-08-12T00:16:34;8.80;;;5.63;;
78686;SDS011;68002;52.310;6.990;2023-08-12T00:18:59;11.38;;;6.97;;
78686;SDS011;68002;52.310;6.990;2023-08-12T00:21:25;8.93;;;6.55;;
78686;SDS011;68002;52.310;6.990;2023-08-12T00:23:50;8.30;;;5.65;;
78686;SDS011;68002;52.310;6.990;2023-08-12T00:26:15;9.07;;;6.28;;
78686;SDS011;68002;52.310;6.990;2023-08-12T00:28:41;9.57;;;5.80;;
78686;SDS011;68002;52.310;6.990;2023-08-12T00:31:06;9.95;;;5.80;;
78686;SDS011;68002;52.310;6.990;2023-08-12T00:33:31;9.02;;;5.43;;
78686;SDS011;68002;52.310;6.990;2023-08-12T00:35:56;7.97;;;4.63;;
78686;SDS011;68002;52.310;6.990;2023-08-12T00:38:21;9.15;;;6.15;;
78686;SDS011;68002;52.310;6.990;2023-08-12T00:40:47;11.38;;;6.47;;
78686;SDS011;68002;52.310;6.990;2023-08-12T00:43:12;9.52;;;5.63;;
78686;SDS011;68002;52.310;6.990;2023-08-12T00:45:37;11.20;;;6.78;;
78686;SDS011;68002;52.310;6.990;2023-08-12T00:48:05;10.13;;;6.53;;
78686;SDS011;68002;52.310;6.990;2023-08-12T00:50:31;11.88;;;6.90;;
78686;SDS011;68002;52.310;6.990;2023-08-12T00:52:57;10.33;;;6.27;;
78686;SDS011;68002;52.310;6.990;2023-08-12T00:55:23;8.77;;;7.07;;
78686;SDS011;68002;52.310;6.990;2023-08-12T00:57:48;7.63;;;6.80;;
78686;SDS011;68002;52.310;6.990;2023-08-12T01:00:14;9.47;;;6.03;;
78686;SDS011;68002;52.310;6.990;2023-08-12T01:02:39;13.73;;;7.28;;
78686;SDS011;68002;52.310;6.990;2023-08-12T01:05:05;9.63;;;6.00;;
78686;SDS011;68002;52.310;6.990;2023-08-12T01:07:30;9.13;;;5.50;;
78686;SDS011;68002;52.310;6.990;2023-08-12T01:09:56;9.03;;;6.20;;
78686;SDS011;68002;52.310;6.990;2023-08-12T01:12:24;8.32;;;6.13;;
78686;SDS011;68002;52.310;6.990;2023-08-12T01:14:51;9.60;;;6.28;;
78686;SDS011;68002;52.310;6.990;2023-08-12T01:17:17;8.75;;;6.70;;
78686;SDS011;68002;52.310;6.990;2023-08-12T01:19:43;10.97;;;6.43;;
78686;SDS011;68002;52.310;6.990;2023-08-12T01:22:09;8.13;;;5.90;;
78686;SDS011;68002;52.310;6.990;2023-08-12T01:24:41;9.63;;;5.90;;
78686;SDS011;68002;52.310;6.990;2023-08-12T01:27:07;7.55;;;6.30;;
78686;SDS011;68002;52.310;6.990;2023-08-12T01:29:33;10.10;;;5.60;;
78686;SDS011;68002;52.310;6.990;2023-08-12T01:34:44;9.82;;;5.60;;
78686;SDS011;68002;52.310;6.990;2023-08-12T01:37:11;13.60;;;7.20;;
78686;SDS011;68002;52.310;6.990;2023-08-12T01:39:39;14.93;;;8.98;;
78686;SDS011;68002;52.310;6.990;2023-08-12T01:42:04;11.43;;;8.10;;
78686;SDS011;68002;52.310;6.990;2023-08-12T01:44:29;14.83;;;7.47;;
78686;SDS011;68002;52.310;6.990;2023-08-12T01:46:55;13.18;;;8.05;;
78686;SDS011;68002;52.310;6.990;2023-08-12T01:49:20;11.30;;;7.47;;
78686;SDS011;68002;52.310;6.990;2023-08-12T01:51:45;10.77;;;6.03;;
78686;SDS011;68002;52.310;6.990;2023-08-12T01:54:10;8.38;;;6.15;;
78686;SDS011;68002;52.310;6.990;2023-08-12T01:56:35;11.15;;;7.78;;
78686;SDS011;68002;52.310;6.990;2023-08-12T01:59:00;13.80;;;8.10;;
78686;SDS011;68002;52.310;6.990;2023-08-12T02:01:25;10.70;;;7.97;;
78686;SDS011;68002;52.310;6.990;2023-08-12T02:03:50;8.93;;;6.47;;
78686;SDS011;68002;52.310;6.990;2023-08-12T02:06:16;8.75;;;7.05;;
78686;SDS011;68002;52.310;6.990;2023-08-12T02:08:41;8.40;;;6.57;;
78686;SDS011;68002;52.310;6.990;2023-08-12T02:11:06;11.82;;;7.63;;
78686;SDS011;68002;52.310;6.990;2023-08-12T02:13:31;10.57;;;7.60;;
78686;SDS011;68002;52.310;6.990;2023-08-12T02:15:56;10.00;;;7.38;;
78686;SDS011;68002;52.310;6.990;2023-08-12T02:18:21;12.25;;;7.57;;
78686;SDS011;68002;52.310;6.990;2023-08-12T02:20:46;10.95;;;7.13;;
78686;SDS011;68002;52.310;6.990;2023-08-12T02:23:12;10.05;;;7.85;;
78686;SDS011;68002;52.310;6.990;2023-08-12T02:25:37;11.75;;;8.25;;
78686;SDS011;68002;52.310;6.990;2023-08-12T02:28:02;12.13;;;8.68;;
78686;SDS011;68002;52.310;6.990;2023-08-12T02:30:28;10.70;;;8.13;;
78686;SDS011;68002;52.310;6.990;2023-08-12T02:32:53;10.63;;;6.15;;
78686;SDS011;68002;52.310;6.990;2023-08-12T02:35:18;10.35;;;6.68;;
78686;SDS011;68002;52.310;6.990;2023-08-12T02:37:43;13.90;;;9.30;;
78686;SDS011;68002;52.310;6.990;2023-08-12T02:40:09;11.20;;;8.05;;
78686;SDS011;68002;52.310;6.990;2023-08-12T02:42:34;11.32;;;8.43;;
78686;SDS011;68002;52.310;6.990;2023-08-12T02:44:59;10.73;;;7.55;;
78686;SDS011;68002;52.310;6.990;2023-08-12T02:47:24;12.38;;;8.00;;
78686;SDS011;68002;52.310;6.990;2023-08-12T02:49:49;11.80;;;7.78;;
78686;SDS011;68002;52.310;6.990;2023-08-12T02:52:14;11.85;;;6.97;;
78686;SDS011;68002;52.310;6.990;2023-08-12T02:54:40;11.90;;;8.35;;
78686;SDS011;68002;52.310;6.990;2023-08-12T02:57:05;13.68;;;8.88;;
78686;SDS011;68002;52.310;6.990;2023-08-12T02:59:30;15.60;;;9.07;;
78686;SDS011;68002;52.310;6.990;2023-08-12T03:01:55;10.00;;;7.57;;
78686;SDS011;68002;52.310;6.990;2023-08-12T03:04:20;13.97;;;9.80;;
78686;SDS011;68002;52.310;6.990;2023-08-12T03:06:45;11.17;;;6.37;;
78686;SDS011;68002;52.310;6.990;2023-08-12T03:09:10;13.00;;;8.57;;
78686;SDS011;68002;52.310;6.990;2023-08-12T03:11:35;13.25;;;10.15;;
78686;SDS011;68002;52.310;6.990;2023-08-12T03:14:01;12.57;;;9.55;;
78686;SDS011;68002;52.310;6.990;2023-08-12T03:16:26;12.50;;;8.57;;
78686;SDS011;68002;52.310;6.990;2023-08-12T03:18:51;11.93;;;8.93;;
78686;SDS011;68002;52.310;6.990;2023-08-12T03:21:16;14.03;;;10.60;;
78686;SDS011;68002;52.310;6.990;2023-08-12T03:23:41;11.65;;;8.20;;
78686;SDS011;68002;52.310;6.990;2023-08-12T03:26:06;11.18;;;8.32;;
78686;SDS011;68002;52.310;6.990;2023-08-12T03:28:31;13.18;;;8.43;;
78686;SDS011;68002;52.310;6.990;2023-08-12T03:30:56;14.40;;;9.85;;
78686;SDS011;68002;52.310;6.990;2023-08-12T03:33:22;10.57;;;8.07;;
78686;SDS011;68002;52.310;6.990;2023-08-12T03:35:47;11.90;;;8.85;;
78686;SDS011;68002;52.310;6.990;2023-08-12T03:38:13;11.98;;;9.10;;
78686;SDS011;68002;52.310;6.990;2023-08-12T03:40:38;13.05;;;10.13;;
78686;SDS011;68002;52.310;6.990;2023-08-12T03:43:03;11.63;;;8.75;;
78686;SDS011;68002;52.310;6.990;2023-08-12T03:45:28;11.20;;;8.48;;
78686;SDS011;68002;52.310;6.990;2023-08-12T03:47:53;14.75;;;9.05;;
78686;SDS011;68002;52.310;6.990;2023-08-12T03:50:19;13.02;;;8.90;;
78686;SDS011;68002;52.310;6.990;2023-08-12T03:52:44;10.00;;;8.10;;
78686;SDS011;68002;52.310;6.990;2023-08-12T03:55:09;12.60;;;9.48;;
78686;SDS011;68002;52.310;6.990;2023-08-12T03:57:34;12.30;;;9.63;;
78686;SDS011;68002;52.310;6.990;2023-08-12T03:59:59;12.73;;;8.35;;
78686;SDS011;68002;52.310;6.990;2023-08-12T04:02:24;13.13;;;9.23;;
78686;SDS011;68002;52.310;6.990;2023-08-12T04:04:49;13.35;;;9.55;;
78686;SDS011;68002;52.310;6.990;2023-08-12T04:07:14;10.48;;;8.48;;
78686;SDS011;68002;52.310;6.990;2023-08-12T04:09:40;10.25;;;7.45;;
78686;SDS011;68002;52.310;6.990;2023-08-12T04:12:05;13.60;;;10.02;;
78686;SDS011;68002;52.310;6.990;2023-08-12T04:14:30;12.80;;;9.57;;
78686;SDS011;68002;52.310;6.990;2023-08-12T04:16:55;12.32;;;9.00;;
78686;SDS011;68002;52.310;6.990;2023-08-12T04:19:20;17.60;;;10.55;;
78686;SDS011;68002;52.310;6.990;2023-08-12T04:21:45;11.23;;;9.00;;
78686;SDS011;68002;52.310;6.990;2023-08-12T04:24:10;11.63;;;9.30;;
78686;SDS011;68002;52.310;6.990;2023-08-12T04:26:35;13.82;;;10.57;;
78686;SDS011;68002;52.310;6.990;2023-08-12T04:29:01;11.23;;;8.32;;
78686;SDS011;68002;52.310;6.990;2023-08-12T04:31:26;12.07;;;9.18;;
78686;SDS011;68002;52.310;6.990;2023-08-12T04:33:51;9.85;;;8.02;;
78686;SDS011;68002;52.310;6.990;2023-08-12T04:36:16;14.48;;;9.68;;
78686;SDS011;68002;52.310;6.990;2023-08-12T04:38:41;13.45;;;9.30;;
78686;SDS011;68002;52.310;6.990;2023-08-12T04:41:06;11.63;;;8.40;;
78686;SDS011;68002;52.310;6.990;2023-08-12T04:43:31;13.45;;;9.18;;
78686;SDS011;68002;52.310;6.990;2023-08-12T04:45:56;12.55;;;9.40;;
78686;SDS011;68002;52.310;6.990;2023-08-12T04:48:21;10.68;;;8.75;;
78686;SDS011;68002;52.310;6.990;2023-08-12T04:50:47;13.80;;;9.70;;
78686;SDS011;68002;52.310;6.990;2023-08-12T04:53:12;12.65;;;9.30;;
78686;SDS011;68002;52.310;6.990;2023-08-12T04:55:37;16.30;;;10.38;;
78686;SDS011;68002;52.310;6.990;2023-08-12T04:58:02;10.93;;;8.30;;
78686;SDS011;68002;52.310;6.990;2023-08-12T05:00:27;12.02;;;9.52;;
78686;SDS011;68002;52.310;6.990;2023-08-12T05:02:53;12.63;;;8.65;;
78686;SDS011;68002;52.310;6.990;2023-08-12T05:05:18;14.07;;;8.57;;
78686;SDS011;68002;52.310;6.990;2023-08-12T05:07:43;10.55;;;8.40;;
78686;SDS011;68002;52.310;6.990;2023-08-12T05:10:08;10.55;;;8.20;;
78686;SDS011;68002;52.310;6.990;2023-08-12T05:12:33;11.80;;;8.90;;
78686;SDS011;68002;52.310;6.990;2023-08-12T05:14:59;12.50;;;8.70;;
78686;SDS011;68002;52.310;6.990;2023-08-12T05:17:24;13.32;;;8.32;;
78686;SDS011;68002;52.310;6.990;2023-08-12T05:19:49;12.80;;;8.53;;
78686;SDS011;68002;52.310;6.990;2023-08-12T05:22:15;11.35;;;8.75;;
78686;SDS011;68002;52.310;6.990;2023-08-12T05:24:40;10.55;;;8.40;;
78686;SDS011;68002;52.310;6.990;2023-08-12T05:27:05;12.57;;;9.13;;
78686;SDS011;68002;52.310;6.990;2023-08-12T05:29:30;12.95;;;8.52;;
78686;SDS011;68002;52.310;6.990;2023-08-12T05:31:55;9.63;;;7.63;;
78686;SDS011;68002;52.310;6.990;2023-08-12T05:34:21;10.45;;;7.38;;
78686;SDS011;68002;52.310;6.990;2023-08-12T05:36:46;10.43;;;8.07;;
78686;SDS011;68002;52.310;6.990;2023-08-12T05:39:11;9.20;;;6.55;;
78686;SDS011;68002;52.310;6.990;2023-08-12T05:41:36;9.83;;;7.07;;
78686;SDS011;68002;52.310;6.990;2023-08-12T05:44:01;8.40;;;6.43;;
78686;SDS011;68002;52.310;6.990;2023-08-12T05:46:26;12.97;;;8.47;;
78686;SDS011;68002;52.310;6.990;2023-08-12T05:48:51;11.32;;;7.50;;
78686;SDS011;68002;52.310;6.990;2023-08-12T05:51:17;11.18;;;8.98;;
78686;SDS011;68002;52.310;6.990;2023-08-12T05:53:42;9.10;;;7.82;;
78686;SDS011;68002;52.310;6.990;2023-08-12T05:56:07;13.90;;;8.73;;
78686;SDS011;68002;52.310;6.990;2023-08-12T05:58:32;10.30;;;8.20;;
78686;SDS011;68002;52.310;6.990;2023-08-12T06:00:57;8.90;;;7.28;;
78686;SDS011;68002;52.310;6.990;2023-08-12T06:03:22;9.50;;;6.50;;
78686;SDS011;68002;52.310;6.990;2023-08-12T06:05:47;9.17;;;7.20;;
78686;SDS011;68002;52.310;6.990;2023-08-12T06:08:13;8.00;;;6.57;;
78686;SDS011;68002;52.310;6.990;2023-08-12T06:10:38;9.65;;;7.90;;
78686;SDS011;68002;52.310;6.990;2023-08-12T06:13:03;9.27;;;6.27;;
78686;SDS011;68002;52.310;6.990;2023-08-12T06:15:29;11.50;;;6.13;;
78686;SDS011;68002;52.310;6.990;2023-08-12T06:17:54;10.13;;;7.13;;
78686;SDS011;68002;52.310;6.990;2023-08-12T06:20:19;10.65;;;7.00;;
78686;SDS011;68002;52.310;6.990;2023-08-12T06:22:44;7.63;;;6.13;;
78686;SDS011;68002;52.310;6.990;2023-08-12T06:25:09;9.07;;;5.90;;
78686;SDS011;68002;52.310;6.990;2023-08-12T06:27:34;8.02;;;6.15;;
78686;SDS011;68002;52.310;6.990;2023-08-12T06:29:59;10.15;;;5.90;;
78686;SDS011;68002;52.310;6.990;2023-08-12T06:32:24;7.85;;;5.90;;
78686;SDS011;68002;52.310;6.990;2023-08-12T06:34:50;8.15;;;5.78;;
78686;SDS011;68002;52.310;6.990;2023-08-12T06:37:15;7.82;;;6.25;;
78686;SDS011;68002;52.310;6.990;2023-08-12T06:39:40;8.33;;;5.37;;
78686;SDS011;68002;52.310;6.990;2023-08-12T06:42:05;6.35;;;5.70;;
78686;SDS011;68002;52.310;6.990;2023-08-12T06:44:30;6.17;;;4.60;;
78686;SDS011;68002;52.310;6.990;2023-08-12T06:46:55;9.88;;;5.45;;
78686;SDS011;68002;52.310;6.990;2023-08-12T06:49:21;8.23;;;5.73;;
78686;SDS011;68002;52.310;6.990;2023-08-12T06:51:46;7.38;;;4.70;;
78686;SDS011;68002;52.310;6.990;2023-08-12T06:54:11;7.15;;;4.88;;
78686;SDS011;68002;52.310;6.990;2023-08-12T06:56:36;7.07;;;4.10;;
78686;SDS011;68002;52.310;6.990;2023-08-12T06:59:01;8.20;;;5.70;;
78686;SDS011;68002;52.310;6.990;2023-08-12T07:01:26;7.45;;;5.53;;
78686;SDS011;68002;52.310;6.990;2023-08-12T07:03:51;7.15;;;4.97;;
78686;SDS011;68002;52.310;6.990;2023-08-12T07:06:16;11.40;;;6.13;;
78686;SDS011;68002;52.310;6.990;2023-08-12T07:08:41;8.50;;;6.05;;
78686;SDS011;68002;52.310;6.990;2023-08-12T07:11:07;8.07;;;5.10;;
78686;SDS011;68002;52.310;6.990;2023-08-12T07:13:32;5.05;;;4.28;;
78686;SDS011;68002;52.310;6.990;2023-08-12T07:15:57;9.68;;;6.07;;
78686;SDS011;68002;52.310;6.990;2023-08-12T07:18:22;10.63;;;7.15;;
78686;SDS011;68002;52.310;6.990;2023-08-12T07:20:47;7.43;;;5.27;;
78686;SDS011;68002;52.310;6.990;2023-08-12T07:23:12;6.93;;;5.40;;
78686;SDS011;68002;52.310;6.990;2023-08-12T07:25:37;7.05;;;5.38;;
78686;SDS011;68002;52.310;6.990;2023-08-12T07:28:03;8.00;;;4.35;;
78686;SDS011;68002;52.310;6.990;2023-08-12T07:30:28;6.60;;;4.87;;
78686;SDS011;68002;52.310;6.990;2023-08-12T07:32:53;6.68;;;5.85;;
78686;SDS011;68002;52.310;6.990;2023-08-12T07:35:18;8.27;;;5.78;;
78686;SDS011;68002;52.310;6.990;2023-08-12T07:37:44;8.00;;;5.32;;
78686;SDS011;68002;52.310;6.990;2023-08-12T07:40:09;8.23;;;5.85;;
78686;SDS011;68002;52.310;6.990;2023-08-12T07:42:34;7.97;;;5.78;;
78686;SDS011;68002;52.310;6.990;2023-08-12T07:44:59;7.72;;;5.90;;
78686;SDS011;68002;52.310;6.990;2023-08-12T07:47:24;7.60;;;5.07;;
78686;SDS011;68002;52.310;6.990;2023-08-12T07:49:49;7.38;;;5.78;;
78686;SDS011;68002;52.310;6.990;2023-08-12T07:52:15;13.38;;;8.52;;
78686;SDS011;68002;52.310;6.990;2023-08-12T07:54:40;12.93;;;6.93;;
78686;SDS011;68002;52.310;6.990;2023-08-12T07:57:05;10.80;;;5.97;;
78686;SDS011;68002;52.310;6.990;2023-08-12T07:59:30;10.40;;;6.22;;
78686;SDS011;68002;52.310;6.990;2023-08-12T08:01:55;14.25;;;8.65;;
78686;SDS011;68002;52.310;6.990;2023-08-12T08:04:20;13.35;;;8.80;;
78686;SDS011;68002;52.310;6.990;2023-08-12T08:06:45;10.73;;;6.35;;
78686;SDS011;68002;52.310;6.990;2023-08-12T08:09:10;12.43;;;7.13;;
78686;SDS011;68002;52.310;6.990;2023-08-12T08:11:36;11.27;;;7.17;;
78686;SDS011;68002;52.310;6.990;2023-08-12T08:14:01;9.90;;;5.95;;
78686;SDS011;68002;52.310;6.990;2023-08-12T08:16:26;9.82;;;6.50;;
78686;SDS011;68002;52.310;6.990;2023-08-12T08:18:51;7.47;;;5.00;;
78686;SDS011;68002;52.310;6.990;2023-08-12T08:21:16;11.10;;;6.95;;
78686;SDS011;68002;52.310;6.990;2023-08-12T08:23:41;12.63;;;8.75;;
78686;SDS011;68002;52.310;6.990;2023-08-12T08:26:07;13.30;;;8.47;;
78686;SDS011;68002;52.310;6.990;2023-08-12T08:28:32;11.15;;;6.85;;
78686;SDS011;68002;52.310;6.990;2023-08-12T08:30:57;9.20;;;6.53;;
78686;SDS011;68002;52.310;6.990;2023-08-12T08:33:22;9.30;;;6.53;;
78686;SDS011;68002;52.310;6.990;2023-08-12T08:35:48;10.32;;;6.95;;
78686;SDS011;68002;52.310;6.990;2023-08-12T08:38:13;10.18;;;7.40;;
78686;SDS011;68002;52.310;6.990;2023-08-12T08:40:38;12.85;;;7.07;;
78686;SDS011;68002;52.310;6.990;2023-08-12T08:43:04;10.57;;;6.82;;
78686;SDS011;68002;52.310;6.990;2023-08-12T08:45:32;10.00;;;7.05;;
78686;SDS011;68002;52.310;6.990;2023-08-12T08:47:57;10.40;;;8.37;;
78686;SDS011;68002;52.310;6.990;2023-08-12T08:50:24;11.77;;;7.47;;
78686;SDS011;68002;52.310;6.990;2023-08-12T08:52:49;10.50;;;6.93;;
78686;SDS011;68002;52.310;6.990;2023-08-12T08:55:16;11.40;;;8.45;;
78686;SDS011;68002;52.310;6.990;2023-08-12T08:57:42;13.27;;;7.60;;
78686;SDS011;68002;52.310;6.990;2023-08-12T09:00:08;10.02;;;6.55;;
78686;SDS011;68002;52.310;6.990;2023-08-12T09:02:33;12.20;;;8.17;;
78686;SDS011;68002;52.310;6.990;2023-08-12T09:04:58;8.63;;;7.10;;
78686;SDS011;68002;52.310;6.990;2023-08-12T09:07:24;9.82;;;6.72;;
78686;SDS011;68002;52.310;6.990;2023-08-12T09:09:49;9.48;;;6.90;;
78686;SDS011;68002;52.310;6.990;2023-08-12T09:12:17;8.32;;;6.95;;
78686;SDS011;68002;52.310;6.990;2023-08-12T09:14:43;10.25;;;6.10;;
78686;SDS011;68002;52.310;6.990;2023-08-12T09:17:08;9.07;;;6.93;;
78686;SDS011;68002;52.310;6.990;2023-08-12T09:19:34;11.10;;;6.90;;
78686;SDS011;68002;52.310;6.990;2023-08-12T09:21:59;9.18;;;6.47;;
78686;SDS011;68002;52.310;6.990;2023-08-12T09:24:24;9.88;;;6.55;;
78686;SDS011;68002;52.310;6.990;2023-08-12T09:26:53;8.98;;;6.38;;
78686;SDS011;68002;52.310;6.990;2023-08-12T09:29:22;10.43;;;7.20;;
78686;SDS011;68002;52.310;6.990;2023-08-12T09:31:47;7.30;;;5.90;;
78686;SDS011;68002;52.310;6.990;2023-08-12T09:34:12;8.82;;;6.85;;
78686;SDS011;68002;52.310;6.990;2023-08-12T09:36:37;9.02;;;6.55;;
78686;SDS011;68002;52.310;6.990;2023-08-12T09:39:06;9.40;;;6.93;;
78686;SDS011;68002;52.310;6.990;2023-08-12T09:41:31;7.88;;;6.43;;
78686;SDS011;68002;52.310;6.990;2023-08-12T09:43:56;8.98;;;6.50;;
78686;SDS011;68002;52.310;6.990;2023-08-12T09:46:22;8.15;;;6.47;;
78686;SDS011;68002;52.310;6.990;2023-08-12T09:48:47;9.48;;;6.78;;
78686;SDS011;68002;52.310;6.990;2023-08-12T09:51:13;7.63;;;6.38;;
78686;SDS011;68002;52.310;6.990;2023-08-12T09:53:38;8.25;;;6.22;;
78686;SDS011;68002;52.310;6.990;2023-08-12T09:56:05;8.85;;;6.82;;
78686;SDS011;68002;52.310;6.990;2023-08-12T09:58:31;6.65;;;5.07;;
78686;SDS011;68002;52.310;6.990;2023-08-12T10:00:57;6.72;;;5.80;;
78686;SDS011;68002;52.310;6.990;2023-08-12T10:03:22;7.97;;;6.00;;
78686;SDS011;68002;52.310;6.990;2023-08-12T10:05:48;7.15;;;5.50;;
78686;SDS011;68002;52.310;6.990;2023-08-12T10:08:13;5.78;;;5.18;;
78686;SDS011;68002;52.310;6.990;2023-08-12T10:10:39;6.60;;;4.70;;
78686;SDS011;68002;52.310;6.990;2023-08-12T10:13:04;5.65;;;5.13;;
78686;SDS011;68002;52.310;6.990;2023-08-12T10:15:30;5.93;;;4.68;;
78686;SDS011;68002;52.310;6.990;2023-08-12T10:17:55;4.97;;;4.47;;
78686;SDS011;68002;52.310;6.990;2023-08-12T10:20:21;5.05;;;4.57;;
78686;SDS011;68002;52.310;6.990;2023-08-12T10:22:46;5.85;;;4.72;;
78686;SDS011;68002;52.310;6.990;2023-08-12T10:25:13;5.90;;;4.47;;
78686;SDS011;68002;52.310;6.990;2023-08-12T10:27:38;5.15;;;4.65;;
78686;SDS011;68002;52.310;6.990;2023-08-12T10:30:04;4.28;;;3.88;;
78686;SDS011;68002;52.310;6.990;2023-08-12T10:32:29;5.80;;;5.22;;
78686;SDS011;68002;52.310;6.990;2023-08-12T10:34:55;6.10;;;4.38;;
78686;SDS011;68002;52.310;6.990;2023-08-12T10:37:20;4.63;;;3.75;;
78686;SDS011;68002;52.310;6.990;2023-08-12T10:39:46;4.03;;;3.63;;
78686;SDS011;68002;52.310;6.990;2023-08-12T10:42:11;3.88;;;3.10;;
78686;SDS011;68002;52.310;6.990;2023-08-12T10:44:40;5.18;;;4.68;;
78686;SDS011;68002;52.310;6.990;2023-08-12T10:47:09;4.82;;;3.67;;
78686;SDS011;68002;52.310;6.990;2023-08-12T10:49:37;3.85;;;2.90;;
78686;SDS011;68002;52.310;6.990;2023-08-12T10:52:02;4.13;;;3.72;;
78686;SDS011;68002;52.310;6.990;2023-08-12T10:54:28;3.60;;;3.30;;
78686;SDS011;68002;52.310;6.990;2023-08-12T11:02:30;3.97;;;3.53;;
78686;SDS011;68002;52.310;6.990;2023-08-12T11:04:56;4.50;;;3.65;;
78686;SDS011;68002;52.310;6.990;2023-08-12T11:07:28;4.35;;;3.95;;
78686;SDS011;68002;52.310;6.990;2023-08-12T11:09:54;4.57;;;4.15;;
78686;SDS011;68002;52.310;6.990;2023-08-12T11:12:29;4.40;;;3.72;;
78686;SDS011;68002;52.310;6.990;2023-08-12T11:14:57;4.53;;;4.13;;
78686;SDS011;68002;52.310;6.990;2023-08-12T11:17:28;5.05;;;4.43;;
78686;SDS011;68002;52.310;6.990;2023-08-12T11:19:53;4.95;;;4.40;;
78686;SDS011;68002;52.310;6.990;2023-08-12T11:22:19;5.10;;;4.60;;
78686;SDS011;68002;52.310;6.990;2023-08-12T11:24:45;5.70;;;4.50;;
78686;SDS011;68002;52.310;6.990;2023-08-12T11:27:10;4.53;;;4.10;;
78686;SDS011;68002;52.310;6.990;2023-08-12T11:29:35;4.30;;;3.90;;
78686;SDS011;68002;52.310;6.990;2023-08-12T11:32:00;4.33;;;3.80;;
78686;SDS011;68002;52.310;6.990;2023-08-12T11:34:25;4.13;;;3.72;;
78686;SDS011;68002;52.310;6.990;2023-08-12T11:36:50;4.43;;;3.30;;
78686;SDS011;68002;52.310;6.990;2023-08-12T11:39:15;4.43;;;4.13;;
78686;SDS011;68002;52.310;6.990;2023-08-12T11:41:41;4.57;;;3.10;;
78686;SDS011;68002;52.310;6.990;2023-08-12T11:44:06;3.35;;;3.05;;
78686;SDS011;68002;52.310;6.990;2023-08-12T11:46:36;3.28;;;2.90;;
78686;SDS011;68002;52.310;6.990;2023-08-12T11:49:01;3.25;;;2.95;;
78686;SDS011;68002;52.310;6.990;2023-08-12T11:51:26;2.40;;;2.20;;
78686;SDS011;68002;52.310;6.990;2023-08-12T11:53:51;2.37;;;1.20;;
78686;SDS011;68002;52.310;6.990;2023-08-12T11:56:16;2.78;;;2.17;;
78686;SDS011;68002;52.310;6.990;2023-08-12T11:58:41;1.60;;;1.50;;
78686;SDS011;68002;52.310;6.990;2023-08-12T12:01:07;1.80;;;1.70;;
78686;SDS011;68002;52.310;6.990;2023-08-12T12:03:32;1.55;;;1.38;;
78686;SDS011;68002;52.310;6.990;2023-08-12T12:05:57;2.00;;;1.83;;
78686;SDS011;68002;52.310;6.990;2023-08-12T12:08:22;2.28;;;0.60;;
78686;SDS011;68002;52.310;6.990;2023-08-12T12:10:47;1.20;;;0.80;;
78686;SDS011;68002;52.310;6.990;2023-08-12T12:13:12;1.20;;;1.03;;
78686;SDS011;68002;52.310;6.990;2023-08-12T12:15:38;1.13;;;0.73;;
78686;SDS011;68002;52.310;6.990;2023-08-12T12:18:03;1.80;;;0.73;;
78686;SDS011;68002;52.310;6.990;2023-08-12T12:20:33;2.03;;;1.92;;
78686;SDS011;68002;52.310;6.990;2023-08-12T12:23:04;1.30;;;1.02;;
78686;SDS011;68002;52.310;6.990;2023-08-12T12:25:30;2.38;;;0.70;;
78686;SDS011;68002;52.310;6.990;2023-08-12T12:27:55;1.02;;;0.73;;
78686;SDS011;68002;52.310;6.990;2023-08-12T12:30:20;2.58;;;0.70;;
78686;SDS011;68002;52.310;6.990;2023-08-12T12:32:45;1.48;;;1.38;;
78686;SDS011;68002;52.310;6.990;2023-08-12T12:35:11;2.85;;;1.20;;
78686;SDS011;68002;52.310;6.990;2023-08-12T12:37:36;1.30;;;0.85;;
78686;SDS011;68002;52.310;6.990;2023-08-12T12:40:01;1.00;;;0.40;;
78686;SDS011;68002;52.310;6.990;2023-08-12T12:42:26;2.37;;;0.63;;
78686;SDS011;68002;52.310;6.990;2023-08-12T12:44:51;1.40;;;0.45;;
78686;SDS011;68002;52.310;6.990;2023-08-12T12:47:16;1.35;;;0.52;;
78686;SDS011;68002;52.310;6.990;2023-08-12T12:49:42;1.75;;;0.90;;
78686;SDS011;68002;52.310;6.990;2023-08-12T12:52:07;1.20;;;0.50;;
78686;SDS011;68002;52.310;6.990;2023-08-12T12:54:32;1.83;;;0.80;;
78686;SDS011;68002;52.310;6.990;2023-08-12T12:56:57;0.70;;;0.30;;
78686;SDS011;68002;52.310;6.990;2023-08-12T12:59:22;1.13;;;0.80;;
78686;SDS011;68002;52.310;6.990;2023-08-12T13:01:47;1.20;;;0.32;;
78686;SDS011;68002;52.310;6.990;2023-08-12T13:04:13;1.00;;;0.57;;
78686;SDS011;68002;52.310;6.990;2023-08-12T13:06:38;1.38;;;0.57;;
78686;SDS011;68002;52.310;6.990;2023-08-12T13:09:03;1.00;;;0.60;;
78686;SDS011;68002;52.310;6.990;2023-08-12T13:11:28;1.00;;;0.50;;
78686;SDS011;68002;52.310;6.990;2023-08-12T13:13:53;0.67;;;0.30;;
78686;SDS011;68002;52.310;6.990;2023-08-12T13:16:19;1.10;;;0.70;;
78686;SDS011;68002;52.310;6.990;2023-08-12T13:18:44;1.00;;;0.50;;
78686;SDS011;68002;52.310;6.990;2023-08-12T13:21:09;1.55;;;0.65;;
78686;SDS011;68002;52.310;6.990;2023-08-12T13:23:34;1.27;;;0.82;;
78686;SDS011;68002;52.310;6.990;2023-08-12T13:25:59;1.38;;;0.60;;
78686;SDS011;68002;52.310;6.990;2023-08-12T13:28:24;2.15;;;0.95;;
78686;SDS011;68002;52.310;6.990;2023-08-12T13:30:49;3.63;;;1.15;;
78686;SDS011;68002;52.310;6.990;2023-08-12T13:33:14;1.42;;;0.50;;
78686;SDS011;68002;52.310;6.990;2023-08-12T13:35:40;2.10;;;0.90;;
78686;SDS011;68002;52.310;6.990;2023-08-12T13:38:05;1.80;;;0.82;;
78686;SDS011;68002;52.310;6.990;2023-08-12T13:40:30;2.25;;;0.52;;
78686;SDS011;68002;52.310;6.990;2023-08-12T13:42:55;2.15;;;0.90;;
78686;SDS011;68002;52.310;6.990;2023-08-12T13:45:20;1.90;;;1.00;;
78686;SDS011;68002;52.310;6.990;2023-08-12T13:47:45;2.97;;;1.02;;
78686;SDS011;68002;52.310;6.990;2023-08-12T13:50:10;1.50;;;0.80;;
78686;SDS011;68002;52.310;6.990;2023-08-12T13:52:36;1.60;;;0.63;;
78686;SDS011;68002;52.310;6.990;2023-08-12T13:55:01;2.30;;;0.95;;
78686;SDS011;68002;52.310;6.990;2023-08-12T13:57:26;3.28;;;0.65;;
78686;SDS011;68002;52.310;6.990;2023-08-12T13:59:51;2.17;;;0.80;;
78686;SDS011;68002;52.310;6.990;2023-08-12T14:02:16;1.83;;;0.70;;
78686;SDS011;68002;52.310;6.990;2023-08-12T14:04:41;2.17;;;0.93;;
78686;SDS011;68002;52.310;6.990;2023-08-12T14:07:06;1.67;;;0.82;;
78686;SDS011;68002;52.310;6.990;2023-08-12T14:09:32;2.35;;;0.70;;
78686;SDS011;68002;52.310;6.990;2023-08-12T14:11:57;2.75;;;0.90;;
78686;SDS011;68002;52.310;6.990;2023-08-12T14:14:23;2.53;;;0.80;;
78686;SDS011;68002;52.310;6.990;2023-08-12T14:16:49;2.83;;;0.93;;
78686;SDS011;68002;52.310;6.990;2023-08-12T14:19:14;2.42;;;0.80;;
78686;SDS011;68002;52.310;6.990;2023-08-12T14:21:39;2.30;;;0.98;;
78686;SDS011;68002;52.310;6.990;2023-08-12T14:24:04;3.70;;;1.17;;
78686;SDS011;68002;52.310;6.990;2023-08-12T14:26:29;3.20;;;0.83;;
78686;SDS011;68002;52.310;6.990;2023-08-12T14:28:54;3.20;;;0.93;;
78686;SDS011;68002;52.310;6.990;2023-08-12T14:31:19;3.67;;;0.98;;
78686;SDS011;68002;52.310;6.990;2023-08-12T14:33:44;2.80;;;1.08;;
78686;SDS011;68002;52.310;6.990;2023-08-12T14:36:10;2.40;;;0.80;;
78686;SDS011;68002;52.310;6.990;2023-08-12T14:38:35;3.60;;;0.95;;
78686;SDS011;68002;52.310;6.990;2023-08-12T14:41:00;3.60;;;0.90;;